createdAt,value
2023-03-29T00:02:48.882Z,18.62
2023-03-29T00:08:14.849Z,18.60
2023-03-29T00:13:37.004Z,18.57
2023-03-29T00:18:59.316Z,18.55
2023-03-29T00:24:21.619Z,18.53
2023-03-29T00:29:43.528Z,18.51
2023-03-29T00:35:06.587Z,18.50
2023-03-29T00:40:28.430Z,18.48
2023-03-29T00:45:50.284Z,18.45
2023-03-29T00:51:14.646Z,18.45
2023-03-29T00:56:40.231Z,18.43
2023-03-29T01:02:04.055Z,18.37
2023-03-29T01:07:31.174Z,18.38
2023-03-29T01:13:05.302Z,18.36
2023-03-29T01:18:27.159Z,18.34
2023-03-29T01:24:09.730Z,18.34
2023-03-29T01:29:49.214Z,18.32
2023-03-29T01:35:11.082Z,18.28
2023-03-29T01:40:34.124Z,18.28
2023-03-29T01:46:03.283Z,18.27
2023-03-29T01:52:02.090Z,18.25
2023-03-29T01:57:26.418Z,18.23
2023-03-29T02:02:50.418Z,18.22
2023-03-29T02:08:15.766Z,18.21
2023-03-29T02:13:37.651Z,18.19
2023-03-29T02:18:59.776Z,18.18
2023-03-29T02:24:24.518Z,18.17
2023-03-29T02:29:48.025Z,18.17
2023-03-29T02:35:22.247Z,18.17
2023-03-29T02:40:44.401Z,18.15
2023-03-29T02:46:08.093Z,18.12
2023-03-29T02:51:34.502Z,18.11
2023-03-29T02:57:02.805Z,18.09
2023-03-29T03:02:28.084Z,18.08
2023-03-29T03:07:50.040Z,18.06
2023-03-29T03:13:13.110Z,18.05
2023-03-29T03:18:34.914Z,18.04
2023-03-29T03:23:56.692Z,18.03
2023-03-29T03:29:19.452Z,18.02
2023-03-29T03:34:41.417Z,18.00
2023-03-29T03:40:09.176Z,18.00
2023-03-29T03:45:31.639Z,17.99
2023-03-29T03:50:56.045Z,17.98
2023-03-29T03:56:17.989Z,17.97
2023-03-29T04:01:43.833Z,17.95
2023-03-29T04:07:06.100Z,17.93
2023-03-29T04:12:27.892Z,17.94
2023-03-29T04:17:49.681Z,17.92
2023-03-29T04:23:11.735Z,17.91
2023-03-29T04:28:33.786Z,17.90
2023-03-29T04:33:56.328Z,17.88
2023-03-29T04:39:19.627Z,17.89
2023-03-29T04:44:42.974Z,17.87
2023-03-29T04:50:05.577Z,17.85
2023-03-29T04:55:27.445Z,17.84
2023-03-29T05:00:49.809Z,17.84
2023-03-29T05:06:12.579Z,17.84
2023-03-29T05:11:34.996Z,18.07
2023-03-29T05:16:56.851Z,18.39
2023-03-29T05:22:19.101Z,18.73
2023-03-29T05:27:40.908Z,19.06
2023-03-29T05:33:02.859Z,19.25
2023-03-29T05:38:24.635Z,19.33
2023-03-29T05:43:46.995Z,19.36
2023-03-29T05:49:08.958Z,19.32
2023-03-29T05:54:30.942Z,19.25
2023-03-29T05:59:53.537Z,19.16
2023-03-29T06:05:16.410Z,19.08
2023-03-29T06:10:38.414Z,18.99
2023-03-29T06:16:01.326Z,18.89
2023-03-29T06:21:23.715Z,18.82
2023-03-29T06:26:46.900Z,18.73
2023-03-29T06:32:08.748Z,18.66
2023-03-29T06:37:32.215Z,18.58
2023-03-29T06:42:58.198Z,18.55
2023-03-29T06:48:19.973Z,18.62
2023-03-29T06:53:41.943Z,18.77
2023-03-29T06:59:03.746Z,18.94
2023-03-29T07:04:25.583Z,19.10
2023-03-29T07:09:54.518Z,19.20
2023-03-29T07:15:16.501Z,19.29
2023-03-29T07:20:42.707Z,19.34
2023-03-29T07:26:07.818Z,19.38
2023-03-29T07:31:29.963Z,19.36
2023-03-29T07:36:52.311Z,19.32
2023-03-29T07:42:14.125Z,19.25
2023-03-29T07:47:35.934Z,19.18
2023-03-29T07:52:57.878Z,19.12
2023-03-29T07:58:20.442Z,19.04
2023-03-29T08:03:42.820Z,18.98
2023-03-29T08:09:04.624Z,18.92
2023-03-29T08:14:26.725Z,18.99
2023-03-29T08:19:51.308Z,19.15
2023-03-29T08:25:13.976Z,19.34
2023-03-29T08:30:36.419Z,19.54
2023-03-29T08:35:58.332Z,19.75
2023-03-29T08:41:35.773Z,19.93
2023-03-29T08:47:07.481Z,20.04
2023-03-29T08:52:38.162Z,20.05
2023-03-29T08:58:02.802Z,20.03
2023-03-29T09:03:29.350Z,19.99
2023-03-29T09:08:53.497Z,19.93
2023-03-29T09:14:26.047Z,19.84
2023-03-29T09:20:04.315Z,19.76
2023-03-29T09:25:50.825Z,19.64
2023-03-29T09:31:23.217Z,19.56
2023-03-29T09:37:08.250Z,19.48
2023-03-29T09:42:31.584Z,19.40
2023-03-29T09:48:09.390Z,19.35
2023-03-29T09:53:32.268Z,19.28
2023-03-29T09:58:54.202Z,19.22
2023-03-29T10:04:19.046Z,19.17
2023-03-29T10:09:44.336Z,19.14
2023-03-29T10:15:11.653Z,19.10
2023-03-29T10:20:38.226Z,19.09
2023-03-29T10:26:04.512Z,19.08
2023-03-29T10:31:31.629Z,19.07
2023-03-29T10:37:01.461Z,19.07
2023-03-29T10:42:25.638Z,19.06
2023-03-29T10:47:49.042Z,19.05
2023-03-29T10:53:32.951Z,19.06
2023-03-29T10:59:23.273Z,19.05
2023-03-29T11:04:52.792Z,19.02
2023-03-29T11:10:35.653Z,19.04
2023-03-29T11:16:00.244Z,19.03
2023-03-29T11:21:22.428Z,19.00
2023-03-29T11:27:28.990Z,18.98
2023-03-29T11:33:12.073Z,18.97
2023-03-29T11:38:42.784Z,18.95
2023-03-29T11:44:22.517Z,18.96
2023-03-29T11:49:57.908Z,18.96
2023-03-29T11:55:26.322Z,18.95
2023-03-29T12:00:56.591Z,18.94
2023-03-29T12:06:30.145Z,18.96
2023-03-29T12:11:59.465Z,18.97
2023-03-29T12:17:29.377Z,18.99
2023-03-29T12:22:52.226Z,19.00
2023-03-29T12:29:05.688Z,19.04
2023-03-29T12:34:56.146Z,19.06
2023-03-29T12:40:20.862Z,19.05
2023-03-29T12:45:48.976Z,19.05
2023-03-29T12:51:24.333Z,19.06
2023-03-29T12:56:52.471Z,19.04
2023-03-29T13:02:14.472Z,19.00
2023-03-29T13:07:47.781Z,18.98
2023-03-29T13:13:18.092Z,18.97
2023-03-29T13:19:12.812Z,18.96
2023-03-29T13:25:06.411Z,18.96
2023-03-29T13:30:46.186Z,18.94
2023-03-29T13:36:21.406Z,18.93
2023-03-29T13:41:43.395Z,18.93
2023-03-29T13:47:33.401Z,18.94
2023-03-29T13:53:04.238Z,18.90
2023-03-29T13:58:35.506Z,18.88
2023-03-29T14:03:59.091Z,18.85
2023-03-29T14:09:28.453Z,18.85
2023-03-29T14:15:03.871Z,18.84
2023-03-29T14:20:26.310Z,18.83
2023-03-29T14:25:48.406Z,18.82
2023-03-29T14:31:18.422Z,18.82
2023-03-29T14:36:40.839Z,18.81
2023-03-29T14:42:03.047Z,18.81
2023-03-29T14:47:29.598Z,18.81
2023-03-29T14:52:52.625Z,18.80
2023-03-29T14:58:20.417Z,18.82
2023-03-29T15:03:44.975Z,18.81
2023-03-29T15:09:08.214Z,18.86
2023-03-29T15:14:35.755Z,18.94
2023-03-29T15:20:13.409Z,18.99
2023-03-29T15:25:38.284Z,18.99
2023-03-29T15:36:28.126Z,18.94
2023-03-29T15:47:13.902Z,18.88
2023-03-29T15:52:36.393Z,18.86
2023-03-29T15:57:58.430Z,18.85
2023-03-29T16:03:22.597Z,18.83
2023-03-29T16:08:44.446Z,18.81
2023-03-29T16:14:27.977Z,18.80
2023-03-29T16:19:49.903Z,18.77
2023-03-29T16:25:18.008Z,18.77
2023-03-29T16:30:40.161Z,18.73
2023-03-29T16:36:02.306Z,18.74
2023-03-29T16:41:24.881Z,18.90
2023-03-29T16:46:46.948Z,19.28
2023-03-29T16:52:08.910Z,19.75
2023-03-29T16:57:30.817Z,20.09
2023-03-29T17:02:52.906Z,20.29
2023-03-29T17:08:14.850Z,20.35
2023-03-29T17:13:37.683Z,20.33
2023-03-29T17:19:02.692Z,20.27
2023-03-29T17:24:24.586Z,20.17
2023-03-29T17:29:46.493Z,20.08
2023-03-29T17:35:10.517Z,19.97
2023-03-29T17:40:32.467Z,19.86
2023-03-29T17:45:55.862Z,19.77
2023-03-29T17:51:19.993Z,19.66
2023-03-29T17:56:41.947Z,19.55
2023-03-29T18:02:05.788Z,19.48
2023-03-29T18:07:31.712Z,19.46
2023-03-29T18:12:54.352Z,19.42
2023-03-29T18:18:16.169Z,19.41
2023-03-29T18:23:42.490Z,19.41
2023-03-29T18:29:04.478Z,19.43
2023-03-29T18:34:26.576Z,19.56
2023-03-29T18:39:48.510Z,19.80
2023-03-29T18:45:11.221Z,20.06
2023-03-29T18:50:33.159Z,20.26
2023-03-29T18:55:56.017Z,20.44
2023-03-29T19:01:18.159Z,20.57
2023-03-29T19:06:42.883Z,20.70
2023-03-29T19:12:05.085Z,20.82
2023-03-29T19:17:28.131Z,20.92
2023-03-29T19:22:50.111Z,20.98
2023-03-29T19:28:12.040Z,20.97
2023-03-29T19:33:34.734Z,20.95
2023-03-29T19:38:57.002Z,20.94
2023-03-29T19:44:20.379Z,20.89
2023-03-29T19:49:42.221Z,20.85
2023-03-29T19:55:04.673Z,20.81
2023-03-29T20:00:26.608Z,20.79
2023-03-29T20:05:48.445Z,20.78
2023-03-29T20:11:14.064Z,20.75
2023-03-29T20:16:36.003Z,20.68
2023-03-29T20:21:58.429Z,20.65
2023-03-29T20:27:21.657Z,20.62
2023-03-29T20:32:43.570Z,20.54
2023-03-29T20:38:05.419Z,20.45
2023-03-29T20:43:27.336Z,20.37
2023-03-29T20:48:55.334Z,20.31
2023-03-29T20:54:18.533Z,20.23
2023-03-29T20:59:41.788Z,20.18
2023-03-29T21:05:04.423Z,20.10
2023-03-29T21:10:27.788Z,20.04
2023-03-29T21:15:49.768Z,19.96
2023-03-29T21:21:12.465Z,19.90
2023-03-29T21:26:34.973Z,19.82
2023-03-29T21:31:56.939Z,19.78
2023-03-29T21:37:18.772Z,19.72
2023-03-29T21:42:40.748Z,19.66
2023-03-29T21:48:02.557Z,19.60
2023-03-29T21:53:24.913Z,19.55
2023-03-29T21:58:46.988Z,19.49
2023-03-29T22:04:08.997Z,19.44
2023-03-29T22:09:32.727Z,19.42
2023-03-29T22:14:54.947Z,19.37
2023-03-29T22:20:18.617Z,19.33
2023-03-29T22:25:40.374Z,19.30
2023-03-29T22:31:04.358Z,19.27
2023-03-29T22:36:31.487Z,19.25
2023-03-29T22:41:53.315Z,19.22
2023-03-29T22:47:15.528Z,19.18
2023-03-29T22:52:37.400Z,19.16
2023-03-29T22:57:59.211Z,19.14
2023-03-29T23:03:23.388Z,19.12
2023-03-29T23:08:45.346Z,19.08
2023-03-29T23:14:07.801Z,19.06
2023-03-29T23:19:29.617Z,19.04
2023-03-29T23:24:51.448Z,19.01
2023-03-29T23:30:13.320Z,19.00
2023-03-29T23:35:35.185Z,18.97
2023-03-29T23:41:01.332Z,18.94
2023-03-29T23:46:23.560Z,18.95
2023-03-29T23:51:48.495Z,18.91
2023-03-29T23:57:11.431Z,18.91
